Irbejskoe, Russia
Current Conditions -  °F | °C
As of 6:30 PM on Saturday 22 Nov 2014 (Local Time) from UNKL Reporting Station
Blowing Snow Blowing Snow  
Wind Chill: -12°   Ceiling: Unl
Heat Index:   Visibility: 1.6mi
Dew Point: -4°   Wind: 18mph
Humidity: 61%   Direction: 260°W
Pressure: 29.88"   Gusts: 25mph
Location:  55.63°N, 95.47°E
Report Text: UNKL 221130Z 26008G11MPS 2600 BLSN SKC M14/M20 Q1012 TEMPO28013G18MPS 0400 +SHSN BLSN RMK QFE733 29////55
Loading
Personal Weather Stations






























Interactive Weather Map New forecast layout! Learn more

10-Day Weather Forecast

Advertisements
Track Severe Weather on mobile